Time;durP1;ratioP1;P1;durP2;ratioP2;P2;SDS_P1;SDS_P2;PMS_P1;PMS_P2;Temp;Humidity;BMP_temperature;BMP_pressure;BME280_temperature;BME280_humidity;BME280_pressure;Samples;Min_cycle;Max_cycle;Signal;HPM_P1;HPM_P2
2024/03/03 00:03:01;;;;;;;13.75;6.70;;;;;;;7.72;64.36;98879.19;10346055;28;20077;-59
2024/03/03 00:08:03;;;;;;;16.20;6.93;;;;;;;7.64;64.14;98874.84;10345265;28;20046;-60
2024/03/03 00:13:04;;;;;;;10.73;6.15;;;;;;;7.62;64.69;98873.34;10316402;28;20501;-58
2024/03/03 00:18:06;;;;;;;12.93;6.25;;;;;;;7.53;64.78;98875.34;10304185;28;20081;-58
2024/03/03 00:23:07;;;;;;;14.23;6.25;;;;;;;7.54;64.72;98868.97;10296961;28;20092;-57
2024/03/03 00:28:09;;;;;;;14.43;6.40;;;;;;;7.49;64.53;98868.75;10301656;28;20046;-57
2024/03/03 00:33:10;;;;;;;17.67;6.20;;;;;;;7.32;65.31;98852.13;10296681;28;20058;-58
2024/03/03 00:38:11;;;;;;;13.02;7.28;;;;;;;7.28;65.85;98850.84;10298378;28;20051;-57
2024/03/03 00:43:13;;;;;;;16.80;6.32;;;;;;;7.38;65.76;98842.50;10303120;28;20061;-58
2024/03/03 00:48:15;;;;;;;15.32;6.47;;;;;;;7.36;65.71;98840.03;10299005;28;20175;-59
2024/03/03 00:53:16;;;;;;;15.23;7.72;;;;;;;7.34;65.47;98829.53;10302795;28;20047;-58
2024/03/03 00:58:19;;;;;;;13.93;6.50;;;;;;;7.30;66.07;98833.59;10296364;28;20070;-57
2024/03/03 01:03:21;;;;;;;11.40;6.03;;;;;;;7.37;65.59;98817.63;10302466;28;20046;-58
2024/03/03 01:08:22;;;;;;;12.80;5.88;;;;;;;7.31;65.93;98807.72;10301565;28;20073;-57
2024/03/03 01:13:24;;;;;;;12.55;6.20;;;;;;;7.19;65.44;98807.41;10314144;28;20387;-58
2024/03/03 01:18:25;;;;;;;13.80;7.32;;;;;;;7.14;66.04;98804.47;10341358;28;20445;-57
2024/03/03 01:23:27;;;;;;;17.52;7.32;;;;;;;7.14;66.31;98802.63;10336810;28;20061;-57
2024/03/03 01:28:28;;;;;;;16.23;7.55;;;;;;;7.00;65.90;98806.22;10333196;28;20050;-57
2024/03/03 01:33:30;;;;;;;17.08;7.30;;;;;;;7.15;66.08;98798.13;10343689;28;20038;-57
2024/03/03 01:38:31;;;;;;;16.70;6.85;;;;;;;7.21;65.72;98792.00;10337466;28;20043;-58
2024/03/03 01:43:33;;;;;;;21.27;7.47;;;;;;;7.27;66.05;98793.91;10340867;28;20076;-57
2024/03/03 01:48:36;;;;;;;16.08;7.10;;;;;;;7.35;65.24;98796.44;10340867;28;20061;-57
2024/03/03 01:53:41;;;;;;;12.30;6.25;;;;;;;7.38;65.89;98779.19;10339441;28;20123;-58
2024/03/03 01:58:44;;;;;;;14.38;7.10;;;;;;;7.28;66.13;98765.34;10335994;28;20058;-57
2024/03/03 02:03:45;;;;;;;18.52;6.78;;;;;;;7.33;65.46;98757.56;10336785;28;20057;-57
2024/03/03 02:08:47;;;;;;;19.08;7.18;;;;;;;7.50;66.13;98752.72;10340033;28;20500;-57
2024/03/03 02:13:48;;;;;;;22.10;9.00;;;;;;;7.61;65.58;98744.19;10341257;28;20048;-57
2024/03/03 02:18:50;;;;;;;21.30;9.40;;;;;;;7.85;66.20;98728.66;10337576;28;20759;-55
2024/03/03 02:23:52;;;;;;;19.10;8.93;;;;;;;8.13;66.40;98740.09;10341751;28;20145;-55
2024/03/03 02:28:54;;;;;;;21.58;9.32;;;;;;;8.27;65.91;98730.28;10336797;28;20062;-54
2024/03/03 02:33:55;;;;;;;20.13;10.68;;;;;;;8.44;66.66;98735.31;10337683;28;20057;-56
2024/03/03 02:38:57;;;;;;;19.15;8.63;;;;;;;8.60;66.27;98726.88;10336351;28;20050;-54
2024/03/03 02:43:58;;;;;;;19.00;8.75;;;;;;;8.69;66.80;98717.63;10338506;28;20054;-56
2024/03/03 02:49:00;;;;;;;21.40;8.95;;;;;;;8.71;66.34;98723.63;10339346;28;20041;-55
2024/03/03 02:54:02;;;;;;;15.18;7.88;;;;;;;8.72;66.62;98773.47;10333581;28;20046;-56
2024/03/03 02:59:03;;;;;;;16.98;9.00;;;;;;;8.70;66.76;98735.34;10335916;28;20523;-55
2024/03/03 03:04:04;;;;;;;19.98;8.95;;;;;;;8.74;66.70;98754.50;10338532;28;20046;-55
2024/03/03 03:09:06;;;;;;;18.80;8.50;;;;;;;8.62;66.80;98758.81;10340421;28;20058;-55
2024/03/03 03:14:08;;;;;;;17.60;8.38;;;;;;;8.57;66.79;98758.59;10339151;28;20065;-56
2024/03/03 03:19:09;;;;;;;18.67;8.05;;;;;;;8.52;66.60;98749.31;10334710;28;20517;-56
2024/03/03 03:24:11;;;;;;;16.27;8.45;;;;;;;8.43;66.11;98765.75;10336109;28;20100;-54
2024/03/03 03:29:12;;;;;;;18.42;8.68;;;;;;;8.33;66.38;98763.44;10342641;28;20042;-57
2024/03/03 03:34:13;;;;;;;17.15;8.27;;;;;;;8.22;66.15;98759.50;10340019;28;20049;-57
2024/03/03 03:39:15;;;;;;;16.45;7.75;;;;;;;7.99;66.82;98764.34;10326292;28;20465;-57
2024/03/03 03:44:19;;;;;;;19.42;8.48;;;;;;;8.01;66.37;98757.75;10344258;28;20556;-57
2024/03/03 03:49:21;;;;;;;20.30;9.52;;;;;;;7.77;66.68;98768.97;10340656;28;20046;-57
2024/03/03 03:54:22;;;;;;;23.10;9.50;;;;;;;7.69;67.18;98781.47;10341776;28;20042;-58
2024/03/03 03:59:24;;;;;;;22.33;10.13;;;;;;;7.83;66.76;98785.03;10341163;28;20394;-57
2024/03/03 04:04:27;;;;;;;18.38;8.10;;;;;;;7.91;66.30;98776.03;10344020;28;20053;-57
2024/03/03 04:09:29;;;;;;;16.17;8.32;;;;;;;7.93;66.46;98769.44;10340951;28;20042;-57
2024/03/03 04:14:30;;;;;;;23.02;9.70;;;;;;;7.88;66.64;98763.88;10341343;28;20543;-57
2024/03/03 04:19:32;;;;;;;21.50;8.68;;;;;;;7.83;66.51;98762.81;10341340;28;20042;-57
2024/03/03 04:24:33;;;;;;;17.25;8.30;;;;;;;7.64;66.85;98773.22;10336450;28;20062;-57
2024/03/03 04:29:35;;;;;;;17.15;7.95;;;;;;;7.62;66.99;98777.09;10347890;28;20065;-57
2024/03/03 04:34:39;;;;;;;19.52;8.32;;;;;;;7.62;66.67;98775.25;10343568;28;20058;-58
2024/03/03 04:39:41;;;;;;;20.63;8.38;;;;;;;7.68;66.20;98771.78;10340892;28;20385;-57
2024/03/03 04:44:42;;;;;;;22.58;8.88;;;;;;;7.63;66.90;98768.88;10341526;28;20138;-57
2024/03/03 04:49:44;;;;;;;18.95;9.05;;;;;;;7.42;67.51;98755.56;10340680;28;20042;-58
2024/03/03 04:54:45;;;;;;;14.20;7.35;;;;;;;7.55;67.32;98758.34;10342841;28;20046;-57
2024/03/03 04:59:47;;;;;;;17.65;8.40;;;;;;;7.32;67.29;98769.28;10340073;28;20074;-57
2024/03/03 05:04:48;;;;;;;15.43;7.63;;;;;;;7.41;67.26;98754.75;10339700;28;20050;-57
2024/03/03 05:09:50;;;;;;;15.30;8.30;;;;;;;7.34;67.59;98764.56;10340796;28;20112;-57
2024/03/03 05:14:51;;;;;;;19.10;8.65;;;;;;;7.17;68.33;98777.38;10343816;28;20120;-57
2024/03/03 05:19:53;;;;;;;18.45;7.68;;;;;;;7.32;67.75;98766.59;10340791;28;20056;-58
2024/03/03 05:24:54;;;;;;;19.08;9.15;;;;;;;7.37;67.83;98763.34;10341918;28;20060;-57
2024/03/03 05:29:56;;;;;;;24.02;11.60;;;;;;;7.17;68.47;98774.72;10342805;28;20065;-58
2024/03/03 05:34:57;;;;;;;22.40;10.18;;;;;;;7.25;68.30;98779.91;10338116;28;20046;-57
2024/03/03 05:39:59;;;;;;;24.92;11.30;;;;;;;7.35;68.00;98777.72;10338314;28;20053;-57
2024/03/03 05:45:00;;;;;;;20.42;9.45;;;;;;;7.35;67.91;98787.59;10338539;28;20046;-57
2024/03/03 05:50:02;;;;;;;19.80;9.20;;;;;;;7.45;67.49;98780.06;10338958;28;20057;-57
2024/03/03 05:55:03;;;;;;;24.13;10.43;;;;;;;7.50;67.11;98790.16;10340144;28;20054;-57
2024/03/03 06:00:05;;;;;;;19.75;9.18;;;;;;;7.56;67.30;98789.38;10346037;28;20501;-57
2024/03/03 06:05:08;;;;;;;22.58;9.15;;;;;;;7.66;67.66;98781.88;10340547;28;20049;-60
2024/03/03 06:10:09;;;;;;;19.45;9.48;;;;;;;7.78;67.46;98789.31;10335599;28;20138;-60
2024/03/03 06:15:11;;;;;;;22.08;12.20;;;;;;;7.87;67.30;98786.28;10276159;28;20213;-60
2024/03/03 06:20:12;;;;;;;20.40;8.60;;;;;;;7.97;67.21;98791.28;10297210;28;20053;-60
2024/03/03 06:25:14;;;;;;;17.38;8.93;;;;;;;8.01;67.14;98791.72;10299528;28;20046;-60
2024/03/03 06:30:15;;;;;;;21.33;9.52;;;;;;;8.03;67.68;98784.31;10295968;28;20141;-60
2024/03/03 06:35:17;;;;;;;21.33;9.45;;;;;;;8.05;67.47;98785.75;10297575;28;20708;-60
2024/03/03 06:40:19;;;;;;;17.77;9.20;;;;;;;8.07;66.85;98774.88;10294071;28;20498;-60
2024/03/03 06:45:20;;;;;;;21.80;8.55;;;;;;;8.02;67.38;98770.13;10296874;28;20138;-60
2024/03/03 06:50:22;;;;;;;22.85;11.63;;;;;;;8.05;67.19;98780.41;10292889;28;20058;-60
2024/03/03 06:55:23;;;;;;;19.88;9.10;;;;;;;8.16;67.69;98778.22;10298183;28;20046;-60
2024/03/03 07:00:29;;;;;;;18.38;8.52;;;;;;;8.27;67.17;98773.13;10293957;28;20065;-59
2024/03/03 07:05:31;;;;;;;24.17;9.38;;;;;;;8.38;67.57;98776.25;10297970;28;20077;-59
2024/03/03 07:10:32;;;;;;;18.70;9.50;;;;;;;8.54;67.00;98773.22;10305549;28;20149;-59
2024/03/03 07:15:35;;;;;;;18.65;8.70;;;;;;;8.61;67.60;98781.25;10302940;28;20058;-59
2024/03/03 07:20:36;;;;;;;16.77;8.85;;;;;;;8.72;67.36;98786.03;10288480;28;20073;-59
2024/03/03 07:25:38;;;;;;;16.33;8.52;;;;;;;8.79;67.62;98784.22;10303278;28;20058;-59
2024/03/03 07:30:39;;;;;;;20.63;8.38;;;;;;;8.80;67.51;98782.34;10306081;28;20077;-59
2024/03/03 07:35:41;;;;;;;16.88;9.05;;;;;;;8.91;67.35;98779.91;10302674;28;20078;-59
2024/03/03 07:40:44;;;;;;;20.70;9.23;;;;;;;9.08;67.45;98777.66;10306000;28;20046;-60
2024/03/03 07:45:45;;;;;;;18.45;8.48;;;;;;;9.27;67.20;98791.25;10306800;28;20050;-59
2024/03/03 07:50:47;;;;;;;16.83;8.77;;;;;;;9.38;67.36;98792.50;10307302;28;20589;-59
2024/03/03 07:55:49;;;;;;;16.75;8.65;;;;;;;9.57;67.11;98788.97;10298733;28;20047;-59
2024/03/03 08:00:50;;;;;;;17.88;8.60;;;;;;;9.66;67.16;98794.97;10303505;28;20409;-60
2024/03/03 08:05:52;;;;;;;15.40;8.70;;;;;;;9.86;67.28;98792.25;10303010;28;20510;-59
2024/03/03 08:10:53;;;;;;;17.45;8.85;;;;;;;10.04;67.16;98796.94;10320932;28;20050;-59
2024/03/03 08:15:54;;;;;;;15.85;8.52;;;;;;;10.18;67.02;98786.97;10338751;28;20070;-58
2024/03/03 08:20:56;;;;;;;18.13;8.90;;;;;;;10.34;66.98;98781.16;10338315;28;20042;-58
2024/03/03 08:25:58;;;;;;;13.95;7.07;;;;;;;10.49;66.92;98781.72;10336766;28;20110;-60
2024/03/03 08:30:59;;;;;;;18.27;9.07;;;;;;;10.66;66.81;98783.88;10336322;28;20069;-59
2024/03/03 08:36:00;;;;;;;18.60;8.38;;;;;;;10.84;66.62;98775.09;10333120;28;20078;-58
2024/03/03 08:41:03;;;;;;;15.52;8.30;;;;;;;10.99;66.16;98775.63;10342229;28;20114;-59
2024/03/03 08:46:05;;;;;;;18.17;7.97;;;;;;;11.17;66.00;98769.50;10340381;28;20063;-60
2024/03/03 08:51:07;;;;;;;17.90;8.98;;;;;;;11.33;65.67;98762.75;10339089;28;20054;-59
2024/03/03 08:56:09;;;;;;;15.73;8.43;;;;;;;11.46;65.48;98765.31;10331640;28;20958;-59
2024/03/03 09:01:14;;;;;;;15.65;8.70;;;;;;;11.61;65.26;98751.53;10336215;28;20049;-59
2024/03/03 09:06:16;;;;;;;23.77;11.60;;;;;;;11.69;64.99;98753.94;10327728;28;20557;-60
2024/03/03 09:11:18;;;;;;;19.15;8.57;;;;;;;11.89;64.71;98747.53;10328751;28;20054;-59
2024/03/03 09:16:19;;;;;;;13.23;7.60;;;;;;;12.07;64.05;98746.72;10333141;28;20055;-57
2024/03/03 09:21:23;;;;;;;15.18;8.65;;;;;;;12.32;63.77;98751.97;10314603;28;20073;-60
2024/03/03 09:26:24;;;;;;;17.33;7.70;;;;;;;12.51;63.19;98752.78;10308272;28;20133;-66
2024/03/03 09:31:26;;;;;;;14.57;7.72;;;;;;;12.69;62.38;98741.94;10299408;28;20038;-67
2024/03/03 09:36:27;;;;;;;15.25;8.48;;;;;;;12.90;62.33;98742.47;10299269;28;20113;-65
2024/03/03 09:41:30;;;;;;;16.58;7.63;;;;;;;13.06;61.32;98749.91;10304597;28;20109;-67
2024/03/03 09:46:35;;;;;;;14.70;7.95;;;;;;;13.24;61.33;98746.28;10301685;28;20046;-67
2024/03/03 09:51:40;;;;;;;13.55;7.82;;;;;;;13.33;60.58;98736.00;10302221;28;20054;-66
2024/03/03 09:56:47;;;;;;;17.05;8.23;;;;;;;13.42;60.21;98720.28;10303324;28;20063;-67
2024/03/03 10:01:50;;;;;;;18.45;8.38;;;;;;;13.48;60.09;98716.63;10303337;28;20053;-66
2024/03/03 10:06:55;;;;;;;16.40;7.95;;;;;;;13.56;59.82;98710.06;10307753;28;20058;-65
2024/03/03 10:11:58;;;;;;;13.77;7.68;;;;;;;13.77;59.34;98714.84;10325937;28;20057;-66
2024/03/03 10:17:02;;;;;;;15.88;7.60;;;;;;;13.93;58.95;98707.09;10344402;28;20046;-66
2024/03/03 10:22:06;;;;;;;14.43;8.30;;;;;;;14.11;58.48;98703.41;10343122;28;20061;-65
2024/03/03 10:27:17;;;;;;;14.30;8.40;;;;;;;14.20;58.05;98708.19;10344530;28;20046;-66
2024/03/03 10:32:19;;;;;;;16.77;7.85;;;;;;;14.42;57.58;98699.41;10367075;28;20081;-66
2024/03/03 10:37:20;;;;;;;16.77;6.93;;;;;;;14.53;57.26;98708.50;10383298;28;20090;-66
2024/03/03 10:42:22;;;;;;;16.08;8.25;;;;;;;14.68;56.71;98706.13;10368070;28;20034;-65
2024/03/03 10:47:24;;;;;;;13.32;7.03;;;;;;;14.64;56.80;98699.56;10362545;28;20148;-59
2024/03/03 10:52:26;;;;;;;15.32;7.88;;;;;;;14.77;56.60;98701.97;10357764;28;20054;-59
2024/03/03 10:57:28;;;;;;;12.27;7.30;;;;;;;14.98;56.06;98689.59;10357936;28;20118;-60
2024/03/03 11:02:30;;;;;;;12.40;6.90;;;;;;;15.11;55.54;98680.31;10365884;28;20941;-59
2024/03/03 11:07:36;;;;;;;14.80;7.18;;;;;;;15.18;55.43;98675.53;10364167;28;20078;-60
2024/03/03 11:12:43;;;;;;;14.27;6.75;;;;;;;15.20;55.47;98665.28;10374422;28;20073;-62
2024/03/03 11:17:51;;;;;;;15.73;8.05;;;;;;;15.27;54.86;98657.00;10351750;28;20046;-59
2024/03/03 11:35:25;;;;;;;16.50;7.53;;;;;;;15.57;54.62;98628.72;10356933;28;20046;-58
2024/03/03 11:40:28;;;;;;;14.13;7.97;;;;;;;15.73;54.29;98635.19;10346057;28;20057;-63
2024/03/03 11:45:50;;;;;;;11.38;6.38;;;;;;;15.94;54.00;98634.34;10334853;28;20042;-62
2024/03/03 11:51:24;;;;;;;15.95;6.72;;;;;;;16.10;53.74;98615.56;10340584;28;20048;-61
2024/03/03 11:56:30;;;;;;;12.93;7.57;;;;;;;16.73;52.99;98611.25;10346981;28;20057;-62
2024/03/03 12:01:31;;;;;;;10.82;6.78;;;;;;;23.58;39.52;98575.91;10350757;28;20050;-62
2024/03/03 12:06:33;;;;;;;10.00;6.38;;;;;;;27.86;32.10;98586.22;10341438;28;20058;-63
2024/03/03 12:11:35;;;;;;;12.10;6.00;;;;;;;32.25;27.24;98587.47;10343482;28;20046;-64
2024/03/03 12:16:37;;;;;;;8.77;6.80;;;;;;;34.50;24.85;98586.13;10342443;28;20070;-64
2024/03/03 12:21:40;;;;;;;9.70;6.15;;;;;;;35.64;23.13;98578.13;10325672;28;20050;-64
2024/03/03 12:26:42;;;;;;;10.05;6.90;;;;;;;36.69;22.06;98579.53;10343440;28;20057;-64
2024/03/03 12:31:46;;;;;;;8.25;5.95;;;;;;;34.06;24.10;98579.16;10340889;28;20069;-63
2024/03/03 12:36:47;;;;;;;6.60;5.32;;;;;;;35.05;22.39;98586.38;10344925;28;20054;-64
2024/03/03 12:41:49;;;;;;;7.68;4.93;;;;;;;36.32;21.16;98586.19;10340038;28;20093;-64
2024/03/03 12:46:50;;;;;;;8.45;5.90;;;;;;;37.89;19.04;98585.66;10339454;28;20556;-64
2024/03/03 12:51:52;;;;;;;7.18;5.38;;;;;;;38.29;19.14;98577.16;10343344;28;20152;-60
2024/03/03 12:56:54;;;;;;;7.25;4.90;;;;;;;38.55;18.47;98570.28;10346863;28;20097;-60
2024/03/03 13:01:55;;;;;;;7.72;5.00;;;;;;;38.91;18.36;98561.63;10351622;28;20505;-60
2024/03/03 13:07:03;;;;;;;6.75;5.28;;;;;;;38.64;17.71;98556.56;10353268;28;20092;-60
2024/03/03 13:12:05;;;;;;;7.75;5.28;;;;;;;36.72;19.01;98556.34;10351110;28;20088;-60
2024/03/03 13:17:07;;;;;;;4.82;4.32;;;;;;;34.63;20.68;98550.41;10351579;28;20052;-60
2024/03/03 13:22:09;;;;;;;7.28;4.75;;;;;;;32.97;22.11;98541.56;10348897;28;20060;-59
2024/03/03 13:27:11;;;;;;;6.20;4.80;;;;;;;31.31;22.98;98533.63;10344515;28;20125;-59
2024/03/03 13:32:12;;;;;;;6.65;4.47;;;;;;;29.15;24.72;98535.69;10350892;28;20049;-59
2024/03/03 13:37:13;;;;;;;5.93;4.10;;;;;;;27.54;27.07;98538.81;10343725;28;20050;-61
2024/03/03 13:42:15;;;;;;;9.38;4.75;;;;;;;26.36;28.10;98536.53;10346754;28;20054;-61
2024/03/03 13:47:17;;;;;;;4.78;4.05;;;;;;;25.39;28.79;98534.78;10346429;28;20049;-59
2024/03/03 13:52:18;;;;;;;6.47;4.35;;;;;;;24.87;29.46;98541.66;10351978;28;20137;-60
2024/03/03 13:57:20;;;;;;;6.95;4.45;;;;;;;24.41;29.99;98539.22;10353456;28;20050;-60
2024/03/03 14:02:21;;;;;;;6.38;4.28;;;;;;;24.07;30.97;98532.34;10346550;28;20046;-63
2024/03/03 14:07:22;;;;;;;5.13;4.03;;;;;;;23.87;31.20;98539.91;10344454;28;20049;-63
2024/03/03 14:12:24;;;;;;;6.05;3.95;;;;;;;23.59;31.57;98536.38;10338864;28;20129;-63
2024/03/03 14:17:25;;;;;;;5.68;4.03;;;;;;;23.25;32.56;98534.88;10344725;28;20052;-63
2024/03/03 14:22:27;;;;;;;5.40;3.92;;;;;;;22.77;33.22;98538.75;10340375;28;20065;-63
2024/03/03 14:27:29;;;;;;;5.22;4.22;;;;;;;22.58;33.66;98540.72;10338747;28;20050;-63
2024/03/03 14:32:30;;;;;;;6.00;3.58;;;;;;;22.45;33.67;98550.50;10338885;28;20054;-63
2024/03/03 14:37:32;;;;;;;6.18;3.58;;;;;;;22.67;33.40;98535.38;10337559;28;20133;-63
2024/03/03 14:42:33;;;;;;;5.18;3.08;;;;;;;22.58;33.74;98543.47;10342890;28;20141;-63
2024/03/03 14:47:35;;;;;;;4.88;3.28;;;;;;;22.34;34.23;98544.41;10341098;28;20046;-63
2024/03/03 14:52:37;;;;;;;6.95;3.72;;;;;;;22.43;34.19;98549.19;10339615;28;20058;-63
2024/03/03 14:57:38;;;;;;;5.72;3.35;;;;;;;22.37;34.47;98548.47;10340140;28;20056;-63
2024/03/03 15:02:39;;;;;;;6.47;3.67;;;;;;;22.27;34.87;98551.38;10343910;28;20042;-63
2024/03/03 15:07:41;;;;;;;3.85;3.03;;;;;;;22.27;35.38;98554.09;10321639;28;20527;-62
2024/03/03 15:12:44;;;;;;;8.55;4.15;;;;;;;22.43;35.20;98555.47;10340669;28;20073;-63
2024/03/03 15:17:46;;;;;;;7.57;3.42;;;;;;;22.60;34.96;98545.91;10342390;28;20050;-63
2024/03/03 15:22:47;;;;;;;4.75;3.40;;;;;;;22.50;34.78;98549.63;10337209;28;20050;-63
2024/03/03 15:27:51;;;;;;;5.68;3.47;;;;;;;22.27;35.34;98548.63;10345244;28;20077;-63
2024/03/03 15:32:53;;;;;;;5.03;3.28;;;;;;;22.21;35.23;98550.59;10349300;28;20064;-63
2024/03/03 15:37:54;;;;;;;4.40;2.97;;;;;;;21.66;36.39;98550.28;10350541;28;20068;-63
2024/03/03 15:42:56;;;;;;;7.40;3.80;;;;;;;21.50;36.73;98555.13;10346208;28;20054;-62
2024/03/03 15:47:58;;;;;;;8.13;3.97;;;;;;;21.96;36.32;98549.88;10353252;28;20058;-62
2024/03/03 15:52:59;;;;;;;10.73;4.25;;;;;;;21.79;36.95;98558.56;10346727;28;20584;-62
2024/03/03 15:58:01;;;;;;;8.90;4.50;;;;;;;21.37;37.40;98568.38;10354715;28;20054;-62
2024/03/03 16:03:04;;;;;;;10.10;4.78;;;;;;;21.07;37.77;98580.47;10344333;28;20049;-62
2024/03/03 16:08:08;;;;;;;11.75;5.45;;;;;;;20.96;37.67;98587.94;10344768;28;20075;-63
2024/03/03 16:13:10;;;;;;;7.22;3.83;;;;;;;20.66;38.01;98593.69;10345865;28;20062;-63
2024/03/03 16:18:12;;;;;;;7.10;3.88;;;;;;;20.20;38.95;98600.22;10332013;28;20058;-62
2024/03/03 16:23:14;;;;;;;6.60;3.75;;;;;;;19.85;39.30;98612.19;10347681;28;20057;-63
2024/03/03 16:28:16;;;;;;;9.05;4.75;;;;;;;19.44;39.81;98613.09;10340663;28;20049;-66
2024/03/03 16:33:17;;;;;;;10.27;4.75;;;;;;;19.11;40.37;98620.00;10344973;28;20057;-65
2024/03/03 16:38:19;;;;;;;8.13;4.68;;;;;;;18.78;40.88;98623.00;10341258;28;20065;-65
2024/03/03 16:43:21;;;;;;;11.57;6.00;;;;;;;18.35;41.69;98630.56;10344807;28;20054;-63
2024/03/03 16:48:22;;;;;;;10.43;4.55;;;;;;;17.97;42.25;98642.69;10344206;28;20058;-64
2024/03/03 16:53:26;;;;;;;11.23;4.40;;;;;;;17.66;42.88;98660.75;10329543;28;20102;-63
2024/03/03 16:58:28;;;;;;;12.80;4.10;;;;;;;17.32;43.31;98650.22;10343363;28;20133;-62
2024/03/03 17:03:30;;;;;;;10.32;5.03;;;;;;;16.88;44.20;98656.72;10326482;28;20065;-66
2024/03/03 17:08:31;;;;;;;15.48;7.63;;;;;;;16.64;44.53;98669.78;10327219;28;20149;-64
2024/03/03 17:13:33;;;;;;;15.30;7.82;;;;;;;16.33;45.22;98677.63;10341176;28;20081;-64
2024/03/03 17:18:36;;;;;;;15.70;8.88;;;;;;;15.94;46.06;98682.31;10327231;28;20049;-64
2024/03/03 17:23:37;;;;;;;14.60;8.57;;;;;;;15.67;46.49;98697.38;10341125;28;20132;-65
2024/03/03 17:28:40;;;;;;;16.30;8.50;;;;;;;15.38;47.08;98706.69;10322101;28;20054;-66
2024/03/03 17:33:41;;;;;;;14.68;7.65;;;;;;;15.12;47.68;98721.75;10337526;28;21090;-59
2024/03/03 17:38:43;;;;;;;13.63;8.02;;;;;;;14.86;47.89;98722.13;10337107;28;20057;-59
2024/03/03 17:43:46;;;;;;;8.95;6.00;;;;;;;14.53;48.69;98733.66;10341419;28;20053;-59
2024/03/03 17:48:48;;;;;;;9.55;4.90;;;;;;;14.25;49.20;98735.28;10341324;28;20405;-59
2024/03/03 17:53:49;;;;;;;14.88;6.32;;;;;;;14.11;49.50;98746.63;10338282;28;20053;-59
2024/03/03 17:58:50;;;;;;;7.97;4.95;;;;;;;13.87;50.07;98744.78;10326926;28;20057;-59
2024/03/03 18:03:52;;;;;;;12.75;4.57;;;;;;;13.67;50.30;98755.16;10338863;28;20061;-58
2024/03/03 18:08:53;;;;;;;12.68;5.35;;;;;;;13.39;50.97;98763.91;10340024;28;20065;-59
2024/03/03 18:13:55;;;;;;;7.75;4.80;;;;;;;13.26;51.23;98763.06;10341155;28;20053;-59
2024/03/03 18:18:57;;;;;;;10.93;5.53;;;;;;;13.10;51.45;98764.56;10341748;28;20126;-59
2024/03/03 18:23:58;;;;;;;14.63;5.70;;;;;;;12.93;51.76;98770.84;10326872;28;20061;-58
2024/03/03 18:28:59;;;;;;;15.82;7.50;;;;;;;12.70;52.25;98775.13;10340124;28;20061;-58
2024/03/03 18:34:01;;;;;;;22.20;11.20;;;;;;;12.62;52.30;98783.56;10321333;28;20129;-58
2024/03/03 18:39:04;;;;;;;16.60;7.88;;;;;;;12.49;52.74;98785.34;10335914;28;20069;-58
2024/03/03 18:44:06;;;;;;;16.40;8.75;;;;;;;12.38;53.17;98791.53;10338912;28;20069;-56
2024/03/03 18:49:08;;;;;;;13.73;7.68;;;;;;;12.22;53.37;98795.66;10325802;28;20050;-55
2024/03/03 18:54:10;;;;;;;12.50;5.97;;;;;;;12.13;53.92;98790.78;10342694;28;20049;-57
2024/03/03 18:59:11;;;;;;;13.15;6.15;;;;;;;12.01;53.87;98798.78;10338040;28;20611;-56
2024/03/03 19:04:13;;;;;;;18.13;7.80;;;;;;;11.89;54.35;98799.53;10346509;28;20449;-57
2024/03/03 19:09:16;;;;;;;21.42;9.20;;;;;;;11.77;54.63;98803.13;10343748;28;20050;-57
2024/03/03 19:14:17;;;;;;;16.15;8.02;;;;;;;11.62;55.18;98807.00;10339322;28;20042;-57
2024/03/03 19:19:20;;;;;;;22.13;8.13;;;;;;;11.51;55.16;98816.63;10330837;28;20097;-56
2024/03/03 19:24:21;;;;;;;17.70;6.63;;;;;;;11.38;55.76;98813.22;10341175;28;20066;-56
2024/03/03 19:29:22;;;;;;;14.05;6.97;;;;;;;11.33;55.97;98821.91;10343003;28;20160;-59
2024/03/03 19:34:24;;;;;;;11.35;6.63;;;;;;;11.32;56.04;98823.78;10347858;28;20472;-56
2024/03/03 19:39:32;;;;;;;13.27;7.32;;;;;;;11.29;56.27;98823.41;10347608;28;20037;-57
2024/03/03 19:44:33;;;;;;;15.90;6.07;;;;;;;11.19;56.40;98828.44;10345434;28;20057;-58
2024/03/03 19:49:35;;;;;;;12.52;6.05;;;;;;;11.19;56.71;98826.56;10344901;28;20137;-57
2024/03/03 19:54:37;;;;;;;12.13;6.45;;;;;;;11.13;56.89;98834.69;10345506;28;20136;-58
2024/03/03 19:59:39;;;;;;;15.15;6.75;;;;;;;10.93;56.99;98842.88;10348584;28;20532;-58
2024/03/03 20:04:40;;;;;;;11.40;5.55;;;;;;;10.78;57.77;98844.00;10328100;28;20057;-59
2024/03/03 20:09:45;;;;;;;9.27;5.70;;;;;;;10.70;57.86;98846.91;10346866;28;20062;-59
2024/03/03 20:14:46;;;;;;;11.82;6.10;;;;;;;10.73;57.74;98849.19;10326600;28;20041;-60
2024/03/03 20:19:50;;;;;;;15.15;6.70;;;;;;;10.75;58.32;98857.88;10343464;28;20058;-58
2024/03/03 20:24:51;;;;;;;12.55;6.82;;;;;;;10.79;58.12;98860.97;10345665;28;20535;-59
2024/03/03 20:29:53;;;;;;;13.05;6.30;;;;;;;10.79;58.65;98869.84;10340072;28;20072;-58
2024/03/03 20:34:56;;;;;;;26.17;12.60;;;;;;;10.79;58.45;98869.03;10346106;28;20046;-58
2024/03/03 20:39:58;;;;;;;29.58;13.15;;;;;;;10.77;58.49;98877.28;10347207;28;20054;-59
2024/03/03 20:44:59;;;;;;;36.25;16.08;;;;;;;10.83;58.68;98881.00;10323799;28;20108;-59
2024/03/03 20:50:01;;;;;;;12.23;6.53;;;;;;;10.73;59.11;98886.00;10330872;28;20433;-58
2024/03/03 20:55:05;;;;;;;10.73;5.68;;;;;;;10.73;59.49;98897.56;10329277;28;20056;-58
2024/03/03 21:00:08;;;;;;;11.52;5.63;;;;;;;10.74;58.75;98893.81;10323197;28;20061;-58
2024/03/03 21:05:10;;;;;;;10.15;5.82;;;;;;;10.75;58.91;98906.25;10342645;28;20064;-59
2024/03/03 21:10:12;;;;;;;12.30;6.85;;;;;;;10.69;59.11;98912.47;10342426;28;20072;-59
2024/03/03 21:15:14;;;;;;;14.02;6.47;;;;;;;10.61;58.90;98912.72;10344516;28;20046;-59
2024/03/03 21:20:16;;;;;;;15.45;6.43;;;;;;;10.54;59.27;98917.28;10322195;28;20478;-58
2024/03/03 21:25:17;;;;;;;14.25;6.90;;;;;;;10.43;59.61;98922.25;10323562;28;20141;-58
2024/03/03 21:30:19;;;;;;;12.63;6.65;;;;;;;10.30;59.64;98925.78;10326515;28;20054;-59
2024/03/03 21:35:21;;;;;;;12.93;7.25;;;;;;;10.19;60.05;98944.34;10330109;28;20040;-57
2024/03/03 21:40:24;;;;;;;12.23;6.38;;;;;;;10.11;59.94;98948.09;10336836;28;20048;-59
2024/03/03 21:45:25;;;;;;;17.60;7.93;;;;;;;10.02;60.12;98952.84;10338070;28;20505;-58
2024/03/03 21:50:27;;;;;;;15.32;8.07;;;;;;;9.92;60.14;98949.75;10337348;28;20718;-58
2024/03/03 21:55:28;;;;;;;12.32;7.43;;;;;;;9.81;60.40;98955.72;10332149;28;20050;-59
2024/03/03 22:00:30;;;;;;;13.38;6.15;;;;;;;9.68;60.29;98952.00;10336394;28;20066;-59
2024/03/03 22:05:31;;;;;;;13.10;6.05;;;;;;;9.57;60.74;98962.53;10338820;28;20046;-59
2024/03/03 22:10:33;;;;;;;10.38;6.90;;;;;;;9.47;60.94;98968.28;10337880;28;20065;-58
2024/03/03 22:15:35;;;;;;;13.80;6.22;;;;;;;9.40;61.03;98972.78;10334712;28;20054;-58
2024/03/03 22:20:36;;;;;;;13.57;5.95;;;;;;;9.31;61.05;98972.97;10335686;28;20054;-58
2024/03/03 22:25:38;;;;;;;14.13;6.38;;;;;;;9.21;61.34;98979.75;10336934;28;20401;-58
2024/03/03 22:30:39;;;;;;;14.30;5.80;;;;;;;9.10;61.38;98989.19;10339278;28;20510;-58
2024/03/03 22:35:41;;;;;;;14.25;5.80;;;;;;;9.02;61.66;98989.38;10336978;28;20046;-58
2024/03/03 22:40:42;;;;;;;12.20;5.82;;;;;;;8.96;61.75;98991.00;10338988;28;20062;-58
2024/03/03 22:45:44;;;;;;;14.80;6.00;;;;;;;8.86;61.88;98987.84;10343193;28;20058;-59
2024/03/03 22:50:45;;;;;;;11.55;6.32;;;;;;;8.74;62.22;98990.28;10336865;28;20050;-58
2024/03/03 22:55:46;;;;;;;11.82;6.07;;;;;;;8.73;62.58;98997.47;10334750;28;20064;-58
2024/03/03 23:00:48;;;;;;;15.70;7.47;;;;;;;8.71;62.69;99004.91;10336878;28;20058;-59
2024/03/03 23:05:49;;;;;;;12.48;6.30;;;;;;;8.65;62.70;99015.56;10339947;28;20539;-58
2024/03/03 23:10:51;;;;;;;13.95;6.25;;;;;;;8.59;62.52;99021.69;10336709;28;20065;-58
2024/03/03 23:15:53;;;;;;;11.95;6.55;;;;;;;8.52;62.73;99035.88;10336172;28;20084;-58
2024/03/03 23:20:55;;;;;;;12.32;6.32;;;;;;;8.47;62.50;99040.16;10337190;28;20768;-56
2024/03/03 23:25:56;;;;;;;12.52;5.82;;;;;;;8.40;63.23;99032.06;10337284;28;20046;-58
2024/03/03 23:30:58;;;;;;;12.77;6.43;;;;;;;8.32;62.78;99041.06;10334360;28;20061;-57